Time;durP1;ratioP1;P1;durP2;ratioP2;P2;SDS_P1;SDS_P2;PMS_P1;PMS_P2;Temp;Humidity;BMP_temperature;BMP_pressure;BME280_temperature;BME280_humidity;BME280_pressure;Samples;Min_cycle;Max_cycle;Signal;HPM_P1;HPM_P2
2022/04/28 00:01:40;;;;;;;25.45;8.80;;;;;;;;;;4995138;28;20083;-78
2022/04/28 00:04:05;;;;;;;27.63;8.95;;;;;;;;;;5014128;28;20018;-77
2022/04/28 00:06:31;;;;;;;32.78;9.52;;;;;;;;;;5007946;28;20017;-76
2022/04/28 00:08:56;;;;;;;30.95;9.57;;;;;;;;;;5009683;28;20433;-76
2022/04/28 00:11:22;;;;;;;27.88;9.80;;;;;;;;;;4996232;28;20022;-77
2022/04/28 00:13:47;;;;;;;37.50;9.45;;;;;;;;;;4994933;28;20268;-77
2022/04/28 00:16:13;;;;;;;29.15;9.40;;;;;;;;;;5006768;28;20064;-77
2022/04/28 00:18:38;;;;;;;33.00;9.30;;;;;;;;;;5013545;28;20168;-77
2022/04/28 00:21:04;;;;;;;30.10;9.70;;;;;;;;;;4995058;28;20069;-77
2022/04/28 00:23:29;;;;;;;24.30;9.30;;;;;;;;;;5014880;28;20241;-76
2022/04/28 00:25:54;;;;;;;31.75;10.25;;;;;;;;;;5000910;28;20020;-80
2022/04/28 00:28:20;;;;;;;30.58;9.65;;;;;;;;;;4985147;28;20146;-80
2022/04/28 00:30:46;;;;;;;30.25;9.40;;;;;;;;;;5016681;28;20032;-80
2022/04/28 00:33:12;;;;;;;21.42;9.18;;;;;;;;;;5002846;28;20026;-81
2022/04/28 00:35:38;;;;;;;24.15;9.55;;;;;;;;;;5005675;28;20017;-80
2022/04/28 00:38:07;;;;;;;31.50;8.70;;;;;;;;;;4994894;28;20322;-80
2022/04/28 00:40:32;;;;;;;28.67;8.30;;;;;;;;;;5000310;28;20018;-80
2022/04/28 00:43:18;;;;;;;33.13;8.88;;;;;;;;;;4993831;28;20295;-80
2022/04/28 00:45:43;;;;;;;16.77;7.60;;;;;;;;;;5011704;28;20022;-77
2022/04/28 00:50:57;;;;;;;31.52;8.48;;;;;;;;;;5010941;28;20068;-77
2022/04/28 00:53:27;;;;;;;26.08;7.63;;;;;;;;;;5028308;28;20022;-77
2022/04/28 00:55:53;;;;;;;28.35;8.70;;;;;;;;;;5031528;28;20081;-80
2022/04/28 00:58:20;;;;;;;21.92;7.82;;;;;;;;;;5018646;28;20038;-81
2022/04/28 01:00:53;;;;;;;19.92;7.40;;;;;;;;;;5009716;28;20032;-80
2022/04/28 01:03:30;;;;;;;24.77;8.50;;;;;;;;;;5010579;28;20061;-80
2022/04/28 01:05:58;;;;;;;29.55;7.43;;;;;;;;;;5015722;28;20014;-80
2022/04/28 01:08:26;;;;;;;20.85;7.60;;;;;;;;;;5016641;28;20029;-80
2022/04/28 01:10:52;;;;;;;17.55;6.82;;;;;;;;;;5016980;28;20288;-80
2022/04/28 01:13:18;;;;;;;27.83;8.35;;;;;;;;;;5015065;28;20116;-80
2022/04/28 01:15:44;;;;;;;25.77;7.43;;;;;;;;;;5009713;28;20049;-81
2022/04/28 01:18:10;;;;;;;26.33;7.45;;;;;;;;;;5012603;28;20018;-80
2022/04/28 01:20:35;;;;;;;24.02;7.38;;;;;;;;;;5003833;28;20014;-80
2022/04/28 01:23:04;;;;;;;31.35;7.28;;;;;;;;;;5016378;28;20038;-80
2022/04/28 01:25:29;;;;;;;26.95;7.05;;;;;;;;;;5016486;28;20024;-80
2022/04/28 01:27:56;;;;;;;24.52;7.05;;;;;;;;;;5007509;28;20037;-80
2022/04/28 01:30:22;;;;;;;21.02;6.88;;;;;;;;;;5015254;28;20093;-80
2022/04/28 01:32:52;;;;;;;26.75;6.65;;;;;;;;;;5032994;28;20076;-80
2022/04/28 01:35:19;;;;;;;33.92;7.05;;;;;;;;;;5016819;28;20060;-80
2022/04/28 01:37:44;;;;;;;17.00;6.03;;;;;;;;;;5029455;28;20018;-80
2022/04/28 01:40:12;;;;;;;14.63;6.40;;;;;;;;;;5012998;28;20022;-80
2022/04/28 01:42:42;;;;;;;19.95;6.35;;;;;;;;;;5012503;28;20020;-80
2022/04/28 01:45:10;;;;;;;20.25;6.47;;;;;;;;;;5032567;28;20060;-80
2022/04/28 01:47:41;;;;;;;21.23;6.90;;;;;;;;;;5013330;28;20271;-80
2022/04/28 01:50:11;;;;;;;16.40;5.47;;;;;;;;;;5014631;28;20030;-80
2022/04/28 01:55:22;;;;;;;16.17;5.70;;;;;;;;;;5017628;28;20188;-80
2022/04/28 01:57:48;;;;;;;15.43;5.45;;;;;;;;;;5031611;28;20021;-80
2022/04/28 02:00:15;;;;;;;18.30;6.72;;;;;;;;;;5032857;28;20046;-80
2022/04/28 02:02:42;;;;;;;13.45;5.38;;;;;;;;;;5031713;28;20021;-80
2022/04/28 02:05:09;;;;;;;18.85;5.85;;;;;;;;;;5012902;28;20126;-80
2022/04/28 02:07:35;;;;;;;23.63;6.00;;;;;;;;;;5009309;28;20093;-80
2022/04/28 02:10:03;;;;;;;16.58;5.15;;;;;;;;;;5016239;28;20339;-80
2022/04/28 02:12:29;;;;;;;15.70;5.85;;;;;;;;;;5018274;28;20033;-80
2022/04/28 02:14:55;;;;;;;16.83;5.40;;;;;;;;;;5011732;28;20030;-79
2022/04/28 02:17:23;;;;;;;17.35;5.70;;;;;;;;;;5017705;28;20018;-80
2022/04/28 02:19:49;;;;;;;17.10;5.63;;;;;;;;;;5017114;28;20018;-80
2022/04/28 02:22:17;;;;;;;21.95;6.10;;;;;;;;;;5015782;28;20022;-80
2022/04/28 02:24:44;;;;;;;31.60;6.47;;;;;;;;;;5013654;28;20089;-80
2022/04/28 02:27:12;;;;;;;27.77;8.05;;;;;;;;;;5011815;28;20021;-80
2022/04/28 02:29:37;;;;;;;18.25;5.95;;;;;;;;;;5012303;28;20093;-80
2022/04/28 02:32:03;;;;;;;19.17;5.10;;;;;;;;;;5013952;28;20025;-80
2022/04/28 02:34:29;;;;;;;16.70;6.00;;;;;;;;;;5014683;28;20041;-80
2022/04/28 02:36:55;;;;;;;24.75;5.63;;;;;;;;;;5016081;28;20327;-80
2022/04/28 02:39:21;;;;;;;18.50;6.03;;;;;;;;;;5000469;28;20268;-80
2022/04/28 02:41:47;;;;;;;24.30;5.85;;;;;;;;;;5003314;28;20168;-80
2022/04/28 02:44:13;;;;;;;18.13;5.43;;;;;;;;;;5019158;28;20029;-80
2022/04/28 02:46:40;;;;;;;17.73;5.40;;;;;;;;;;5013700;28;20046;-80
2022/04/28 02:49:06;;;;;;;17.15;5.90;;;;;;;;;;5003410;28;20022;-80
2022/04/28 02:51:31;;;;;;;18.70;5.45;;;;;;;;;;5014293;28;21029;-80
2022/04/28 02:53:57;;;;;;;22.63;5.55;;;;;;;;;;5001401;28;20018;-81
2022/04/28 02:56:23;;;;;;;22.38;6.45;;;;;;;;;;5012786;28;20030;-80
2022/04/28 02:58:50;;;;;;;29.13;6.55;;;;;;;;;;4997237;28;20253;-80
2022/04/28 03:01:16;;;;;;;14.88;5.45;;;;;;;;;;5019119;28;20172;-80
2022/04/28 03:03:41;;;;;;;16.67;5.65;;;;;;;;;;5032446;28;20026;-80
2022/04/28 03:11:34;;;;;;;21.40;5.75;;;;;;;;;;5014783;28;20280;-81
2022/04/28 03:14:00;;;;;;;22.33;5.13;;;;;;;;;;4998121;28;20026;-80
2022/04/28 03:16:26;;;;;;;18.17;5.30;;;;;;;;;;5009906;28;20168;-80
2022/04/28 03:18:52;;;;;;;16.52;5.38;;;;;;;;;;4997691;28;20021;-81
2022/04/28 03:21:17;;;;;;;18.55;5.13;;;;;;;;;;5014972;28;20021;-81
2022/04/28 03:23:43;;;;;;;24.30;5.47;;;;;;;;;;5014241;28;20025;-81
2022/04/28 03:26:08;;;;;;;31.38;5.75;;;;;;;;;;4995916;28;20022;-81
2022/04/28 03:28:35;;;;;;;13.80;4.68;;;;;;;;;;4999377;28;20033;-81
2022/04/28 03:31:02;;;;;;;21.10;5.22;;;;;;;;;;5002071;28;20087;-82
2022/04/28 03:33:27;;;;;;;22.73;5.13;;;;;;;;;;5014250;28;20133;-79
2022/04/28 03:35:53;;;;;;;29.88;4.80;;;;;;;;;;5026274;28;20239;-82
2022/04/28 03:38:19;;;;;;;18.20;5.57;;;;;;;;;;4993999;28;20018;-82
2022/04/28 03:40:45;;;;;;;13.23;4.53;;;;;;;;;;4999267;28;20073;-81
2022/04/28 03:43:11;;;;;;;14.32;4.88;;;;;;;;;;5015694;28;20030;-82
2022/04/28 03:45:37;;;;;;;22.42;4.88;;;;;;;;;;4997947;28;20021;-82
2022/04/28 03:48:03;;;;;;;22.80;5.32;;;;;;;;;;5014194;28;20021;-80
2022/04/28 03:50:30;;;;;;;14.60;5.28;;;;;;;;;;4999708;28;20100;-80
2022/04/28 03:52:59;;;;;;;21.27;5.20;;;;;;;;;;5014709;28;20075;-80
2022/04/28 03:55:25;;;;;;;20.15;5.57;;;;;;;;;;5015134;28;20034;-82
2022/04/28 03:57:51;;;;;;;14.18;5.20;;;;;;;;;;5013698;28;20074;-80
2022/04/28 04:00:17;;;;;;;19.30;5.82;;;;;;;;;;5013859;28;20018;-79
2022/04/28 04:02:42;;;;;;;27.15;5.05;;;;;;;;;;5018122;28;20022;-80
2022/04/28 04:05:09;;;;;;;17.77;5.75;;;;;;;;;;4987407;28;20022;-80
2022/04/28 04:07:38;;;;;;;13.82;5.43;;;;;;;;;;5020310;28;20018;-79
2022/04/28 04:10:04;;;;;;;15.35;5.30;;;;;;;;;;5020306;28;20081;-80
2022/04/28 04:12:30;;;;;;;15.20;5.57;;;;;;;;;;5004268;28;20026;-80
2022/04/28 04:14:56;;;;;;;15.52;5.53;;;;;;;;;;5017229;28;20102;-80
2022/04/28 04:17:21;;;;;;;16.85;5.50;;;;;;;;;;5014253;28;20018;-79
2022/04/28 04:19:47;;;;;;;24.75;6.78;;;;;;;;;;5018182;28;20030;-80
2022/04/28 04:22:12;;;;;;;13.95;5.40;;;;;;;;;;4998229;28;20018;-80
2022/04/28 04:24:40;;;;;;;12.73;5.85;;;;;;;;;;5023585;28;20018;-80
2022/04/28 04:27:06;;;;;;;16.42;5.75;;;;;;;;;;5021468;28;20044;-80
2022/04/28 04:29:31;;;;;;;19.63;5.38;;;;;;;;;;5019892;28;20395;-81
2022/04/28 04:34:40;;;;;;;18.35;5.05;;;;;;;;;;5015832;28;20283;-82
2022/04/28 04:37:06;;;;;;;15.63;4.82;;;;;;;;;;5012049;28;20022;-82
2022/04/28 04:39:32;;;;;;;16.50;5.90;;;;;;;;;;5000735;28;20037;-82
2022/04/28 04:41:57;;;;;;;14.32;5.40;;;;;;;;;;5003823;28;20050;-81
2022/04/28 04:44:23;;;;;;;18.50;4.78;;;;;;;;;;5019361;28;20029;-81
2022/04/28 04:46:48;;;;;;;18.92;5.47;;;;;;;;;;5005299;28;20095;-82
2022/04/28 04:49:14;;;;;;;20.15;5.82;;;;;;;;;;5018704;28;20029;-82
2022/04/28 04:51:39;;;;;;;27.45;6.32;;;;;;;;;;5002433;28;20022;-82
2022/04/28 04:54:05;;;;;;;22.23;5.75;;;;;;;;;;5016028;28;20132;-81
2022/04/28 04:56:31;;;;;;;18.45;6.28;;;;;;;;;;5019481;28;20018;-82
2022/04/28 04:58:56;;;;;;;15.35;5.60;;;;;;;;;;5000188;28;20018;-81
2022/04/28 05:01:22;;;;;;;21.92;5.95;;;;;;;;;;5017449;28;20121;-82
2022/04/28 05:03:47;;;;;;;19.20;7.20;;;;;;;;;;4995744;28;20277;-81
2022/04/28 05:06:13;;;;;;;16.02;6.28;;;;;;;;;;5017214;28;20053;-82
2022/04/28 05:08:38;;;;;;;16.95;5.28;;;;;;;;;;5012453;28;20018;-82
2022/04/28 05:11:04;;;;;;;21.23;5.50;;;;;;;;;;5020010;28;20040;-82
2022/04/28 05:13:29;;;;;;;15.68;5.70;;;;;;;;;;5001005;28;20032;-82
2022/04/28 05:15:55;;;;;;;18.60;5.82;;;;;;;;;;5017723;28;20037;-81
2022/04/28 05:18:20;;;;;;;13.38;5.47;;;;;;;;;;5001212;28;20026;-80
2022/04/28 05:20:46;;;;;;;20.60;6.72;;;;;;;;;;5014714;28;20074;-80
2022/04/28 05:23:11;;;;;;;23.52;6.20;;;;;;;;;;5019365;28;20015;-81
2022/04/28 05:25:36;;;;;;;24.50;6.78;;;;;;;;;;5015044;28;20010;-82
2022/04/28 05:28:02;;;;;;;24.27;6.15;;;;;;;;;;5001510;28;20260;-82
2022/04/28 05:30:28;;;;;;;19.48;6.55;;;;;;;;;;4995403;28;20041;-82
2022/04/28 05:32:53;;;;;;;14.88;5.30;;;;;;;;;;4997689;28;20042;-82
2022/04/28 05:35:19;;;;;;;16.50;6.30;;;;;;;;;;5012193;28;20324;-82
2022/04/28 05:37:45;;;;;;;25.65;6.72;;;;;;;;;;5000400;28;20018;-82
2022/04/28 05:40:13;;;;;;;25.48;6.70;;;;;;;;;;5034975;28;20072;-82
2022/04/28 05:45:41;;;;;;;26.00;7.28;;;;;;;;;;5014824;28;20080;-82
2022/04/28 05:48:10;;;;;;;21.35;7.07;;;;;;;;;;5015960;28;20068;-82
2022/04/28 05:50:37;;;;;;;22.58;8.43;;;;;;;;;;5011519;28;20268;-82
2022/04/28 05:53:06;;;;;;;15.40;6.68;;;;;;;;;;5020924;28;20030;-82
2022/04/28 05:55:31;;;;;;;28.50;7.45;;;;;;;;;;5019001;28;20275;-82
2022/04/28 05:57:59;;;;;;;25.90;7.20;;;;;;;;;;5016024;28;20049;-80
2022/04/28 06:00:25;;;;;;;29.23;7.05;;;;;;;;;;5017062;28;20208;-82
2022/04/28 06:02:50;;;;;;;17.63;6.85;;;;;;;;;;5021803;28;20049;-82
2022/04/28 06:05:16;;;;;;;28.20;7.40;;;;;;;;;;5012847;28;20018;-76
2022/04/28 06:07:41;;;;;;;19.15;7.43;;;;;;;;;;4989347;28;20060;-78
2022/04/28 06:10:07;;;;;;;19.70;7.78;;;;;;;;;;5003424;28;20277;-78
2022/04/28 06:12:33;;;;;;;26.13;7.88;;;;;;;;;;4993667;28;20324;-77
2022/04/28 06:14:58;;;;;;;24.80;8.40;;;;;;;;;;5025826;28;20053;-78
2022/04/28 06:17:24;;;;;;;20.77;8.10;;;;;;;;;;4981697;28;20276;-78
2022/04/28 06:19:49;;;;;;;29.50;7.70;;;;;;;;;;5011426;28;20025;-78
2022/04/28 06:22:15;;;;;;;23.27;7.30;;;;;;;;;;4984473;28;21580;-78
2022/04/28 06:24:40;;;;;;;23.50;8.63;;;;;;;;;;5010865;28;20156;-78
2022/04/28 06:27:06;;;;;;;24.88;7.68;;;;;;;;;;4996197;28;20084;-78
2022/04/28 06:29:31;;;;;;;23.48;8.70;;;;;;;;;;5012627;28;20032;-77
2022/04/28 06:31:57;;;;;;;26.33;9.00;;;;;;;;;;4997631;28;20029;-77
2022/04/28 06:34:22;;;;;;;35.47;8.63;;;;;;;;;;5011516;28;20029;-77
2022/04/28 06:36:48;;;;;;;32.35;7.97;;;;;;;;;;5019695;28;20018;-77
2022/04/28 06:39:13;;;;;;;26.63;9.43;;;;;;;;;;5017354;28;20041;-75
2022/04/28 06:41:39;;;;;;;29.45;8.55;;;;;;;;;;5017432;28;20017;-77
2022/04/28 06:44:05;;;;;;;37.50;10.27;;;;;;;;;;4998633;28;20176;-77
2022/04/28 06:46:31;;;;;;;33.70;8.30;;;;;;;;;;5012354;28;20343;-79
2022/04/28 06:52:39;;;;;;;27.50;7.75;;;;;;;;;;4921940;29;20016;-81
2022/04/28 06:55:06;;;;;;;38.97;8.73;;;;;;;;;;4955854;28;20295;-84
2022/04/28 06:57:32;;;;;;;25.55;8.38;;;;;;;;;;4993445;28;20176;-76
2022/04/28 07:00:04;;;;;;;21.77;8.55;;;;;;;;;;5010211;28;20022;-83
2022/04/28 07:02:30;;;;;;;39.40;9.88;;;;;;;;;;5016126;28;20017;-75
2022/04/28 07:04:56;;;;;;;35.88;9.80;;;;;;;;;;5014891;28;20052;-75
2022/04/28 07:07:22;;;;;;;34.13;10.30;;;;;;;;;;5028981;28;20024;-76
2022/04/28 07:09:48;;;;;;;21.98;8.70;;;;;;;;;;5013207;28;20109;-76
2022/04/28 07:12:14;;;;;;;24.75;9.25;;;;;;;;;;5012732;28;20031;-77
2022/04/28 07:14:40;;;;;;;25.85;9.70;;;;;;;;;;5016787;28;20079;-77
2022/04/28 07:17:05;;;;;;;39.25;10.65;;;;;;;;;;5037299;28;20036;-77
2022/04/28 07:19:31;;;;;;;28.02;9.38;;;;;;;;;;5020867;28;20013;-77
2022/04/28 07:21:56;;;;;;;42.80;10.25;;;;;;;;;;4997530;28;20013;-77
2022/04/28 07:24:22;;;;;;;29.23;9.95;;;;;;;;;;5031159;28;20038;-77
2022/04/28 07:26:47;;;;;;;30.23;10.90;;;;;;;;;;5017053;28;20141;-77
2022/04/28 07:32:35;;;;;;;35.58;11.23;;;;;;;;;;5484425;23;21280;-55
2022/04/28 07:35:01;;;;;;;26.15;10.27;;;;;;;;;;5040460;28;20036;-57
2022/04/28 07:37:26;;;;;;;37.65;12.48;;;;;;;;;;5038524;28;20030;-55
2022/04/28 07:39:51;;;;;;;34.20;9.93;;;;;;;;;;5033671;28;20029;-56
2022/04/28 07:42:17;;;;;;;33.33;10.50;;;;;;;;;;5040775;28;20025;-56
2022/04/28 07:44:42;;;;;;;35.30;10.85;;;;;;;;;;5034343;28;20419;-55
2022/04/28 07:47:08;;;;;;;33.63;10.35;;;;;;;;;;5033350;28;20029;-55
2022/04/28 07:49:36;;;;;;;36.55;11.40;;;;;;;;;;5033742;28;20563;-55
2022/04/28 07:52:02;;;;;;;40.97;11.60;;;;;;;;;;5036265;28;20029;-55
2022/04/28 07:54:27;;;;;;;39.67;10.30;;;;;;;;;;5026869;28;20334;-56
2022/04/28 07:56:53;;;;;;;32.03;11.60;;;;;;;;;;5026953;28;20037;-55
2022/04/28 07:59:18;;;;;;;32.85;11.77;;;;;;;;;;5033305;28;20600;-57
2022/04/28 08:01:44;;;;;;;34.42;11.50;;;;;;;;;;5037077;28;20037;-56
2022/04/28 08:04:09;;;;;;;31.02;12.07;;;;;;;;;;5037248;28;20025;-56
2022/04/28 08:06:35;;;;;;;35.83;10.77;;;;;;;;;;5028726;28;20428;-56
2022/04/28 08:09:00;;;;;;;33.03;10.75;;;;;;;;;;5032399;28;20051;-56
2022/04/28 08:11:26;;;;;;;45.95;11.77;;;;;;;;;;5032716;28;20052;-56
2022/04/28 08:13:51;;;;;;;34.03;11.25;;;;;;;;;;5031587;28;20108;-56
2022/04/28 08:16:17;;;;;;;36.97;9.85;;;;;;;;;;5031879;28;20049;-56
2022/04/28 08:18:42;;;;;;;35.65;10.40;;;;;;;;;;5031215;28;20040;-56
2022/04/28 08:21:08;;;;;;;28.67;9.20;;;;;;;;;;5029122;28;20495;-56
2022/04/28 08:23:37;;;;;;;29.10;8.80;;;;;;;;;;5028833;28;20044;-56
2022/04/28 08:26:04;;;;;;;36.25;8.68;;;;;;;;;;5031878;28;20039;-55
2022/04/28 08:28:29;;;;;;;32.15;9.90;;;;;;;;;;5032992;28;20029;-56
2022/04/28 08:30:55;;;;;;;28.92;11.30;;;;;;;;;;5031085;28;20021;-56
2022/04/28 08:33:21;;;;;;;42.60;9.75;;;;;;;;;;5029768;28;20068;-56
2022/04/28 08:35:46;;;;;;;46.40;10.90;;;;;;;;;;5035325;28;20029;-56
2022/04/28 08:38:12;;;;;;;35.75;10.55;;;;;;;;;;5031355;28;20025;-55
2022/04/28 08:40:37;;;;;;;33.17;8.73;;;;;;;;;;5035582;28;20568;-56
2022/04/28 08:43:04;;;;;;;84.80;11.93;;;;;;;;;;5034081;28;20056;-56
2022/04/28 08:45:37;;;;;;;38.25;8.60;;;;;;;;;;5036034;28;20504;-56
2022/04/28 08:48:02;;;;;;;;;;;;;;;;;;5030266;28;20033;-56
2022/04/28 08:50:28;;;;;;;73.75;12.45;;;;;;;;;;5032512;28;19927;-56
2022/04/28 08:52:55;;;;;;;66.85;10.77;;;;;;;;;;5032275;28;20033;-56
2022/04/28 08:55:21;;;;;;;49.50;9.35;;;;;;;;;;5032868;28;20611;-56
2022/04/28 08:57:47;;;;;;;30.60;9.77;;;;;;;;;;5037914;28;20111;-56
2022/04/28 09:00:13;;;;;;;32.55;9.68;;;;;;;;;;5037119;28;20029;-56
2022/04/28 09:02:39;;;;;;;38.45;9.27;;;;;;;;;;5034126;28;20037;-56
2022/04/28 09:05:08;;;;;;;29.35;9.00;;;;;;;;;;5037631;28;20047;-56
2022/04/28 09:07:36;;;;;;;35.47;10.10;;;;;;;;;;5036734;28;20025;-57
2022/04/28 09:10:26;;;;;;;30.83;9.40;;;;;;;;;;5032325;28;20408;-56
2022/04/28 09:15:51;;;;;;;31.33;9.38;;;;;;;;;;5036500;28;20087;-57
2022/04/28 09:18:18;;;;;;;20.23;8.48;;;;;;;;;;5031837;28;20053;-56
2022/04/28 09:20:45;;;;;;;24.73;9.07;;;;;;;;;;5034912;28;20025;-57
2022/04/28 09:23:12;;;;;;;26.92;9.23;;;;;;;;;;5039613;28;20017;-57
2022/04/28 09:25:42;;;;;;;29.05;9.20;;;;;;;;;;5035030;28;20390;-57
2022/04/28 09:28:12;;;;;;;26.02;7.85;;;;;;;;;;5035749;28;20105;-56
2022/04/28 09:30:49;;;;;;;28.73;9.95;;;;;;;;;;5034739;28;20029;-58
2022/04/28 09:33:18;;;;;;;30.02;9.00;;;;;;;;;;5032342;28;20508;-58
2022/04/28 09:35:54;;;;;;;39.10;8.82;;;;;;;;;;5032351;28;20068;-57
2022/04/28 09:38:20;;;;;;;30.42;9.57;;;;;;;;;;5029810;28;20148;-57
2022/04/28 09:43:32;;;;;;;34.75;9.82;;;;;;;;;;5033606;28;20163;-57
2022/04/28 09:45:58;;;;;;;28.60;9.10;;;;;;;;;;5037990;28;20033;-57
2022/04/28 09:48:28;;;;;;;32.15;8.90;;;;;;;;;;5036964;28;20116;-56
2022/04/28 09:51:07;;;;;;;38.63;9.38;;;;;;;;;;5033796;28;20125;-57
2022/04/28 09:53:34;;;;;;;26.58;9.70;;;;;;;;;;5029721;28;20500;-56
2022/04/28 09:56:02;;;;;;;29.35;9.27;;;;;;;;;;5037505;28;20040;-56
2022/04/28 09:58:29;;;;;;;29.38;8.90;;;;;;;;;;5020129;28;20039;-56
2022/04/28 10:01:01;;;;;;;24.05;8.05;;;;;;;;;;5032552;28;20037;-56
2022/04/28 10:03:30;;;;;;;31.63;8.95;;;;;;;;;;5034059;28;20025;-56
2022/04/28 10:05:59;;;;;;;32.63;9.10;;;;;;;;;;5039124;28;20038;-56
2022/04/28 10:08:25;;;;;;;27.77;8.50;;;;;;;;;;5029144;28;20029;-56
2022/04/28 10:10:55;;;;;;;31.77;10.07;;;;;;;;;;5032520;28;20021;-57
2022/04/28 10:13:21;;;;;;;26.48;10.00;;;;;;;;;;5032504;28;20025;-56
2022/04/28 10:15:55;;;;;;;31.65;10.63;;;;;;;;;;5032834;28;20068;-56
2022/04/28 10:18:25;;;;;;;35.83;9.98;;;;;;;;;;5029607;28;20064;-56
2022/04/28 10:20:58;;;;;;;30.15;9.43;;;;;;;;;;5035397;28;20132;-56
2022/04/28 10:34:33;;;;;;;39.17;9.30;;;;;;;;;;5031730;28;20040;-56
2022/04/28 10:37:03;;;;;;;23.40;9.38;;;;;;;;;;5033158;28;20037;-56
2022/04/28 10:39:39;;;;;;;32.55;10.48;;;;;;;;;;5033928;28;20033;-56
2022/04/28 10:42:40;;;;;;;28.17;9.25;;;;;;;;;;5033724;28;20117;-56
2022/04/28 10:45:19;;;;;;;27.27;10.10;;;;;;;;;;5033194;28;20265;-57
2022/04/28 10:47:45;;;;;;;29.42;9.43;;;;;;;;;;5027910;28;20108;-56
2022/04/28 10:50:33;;;;;;;21.83;8.77;;;;;;;;;;5034580;28;20171;-57
2022/04/28 10:53:03;;;;;;;22.10;9.25;;;;;;;;;;5036525;28;20076;-55
2022/04/28 10:55:49;;;;;;;23.15;9.73;;;;;;;;;;5034542;28;20025;-55
2022/04/28 10:58:27;;;;;;;36.72;10.20;;;;;;;;;;5029158;28;20044;-57
2022/04/28 11:00:54;;;;;;;34.60;10.88;;;;;;;;;;5035320;28;20072;-56
2022/04/28 11:03:46;;;;;;;32.08;10.45;;;;;;;;;;5029501;28;20079;-56
2022/04/28 11:06:19;;;;;;;28.60;9.73;;;;;;;;;;5037402;28;20033;-56
2022/04/28 11:08:53;;;;;;;21.85;8.98;;;;;;;;;;5033526;28;20035;-56
2022/04/28 11:11:19;;;;;;;26.48;10.05;;;;;;;;;;5033912;28;20033;-56
2022/04/28 11:13:49;;;;;;;23.15;9.13;;;;;;;;;;5034202;28;20043;-56
2022/04/28 11:16:16;;;;;;;29.48;9.50;;;;;;;;;;5035610;28;20040;-55
2022/04/28 11:18:43;;;;;;;35.40;9.60;;;;;;;;;;5036445;28;20028;-55
2022/04/28 11:21:09;;;;;;;29.95;10.07;;;;;;;;;;5036365;28;20037;-55
2022/04/28 11:23:41;;;;;;;32.10;9.25;;;;;;;;;;5018421;28;20033;-57
2022/04/28 11:26:07;;;;;;;;;;;;;;;;;;5036413;28;20033;-55
2022/04/28 11:28:34;;;;;;;25.55;7.68;;;;;;;;;;5014668;28;20299;-57
2022/04/28 11:31:00;;;;;;;26.17;8.20;;;;;;;;;;5015165;28;20387;-57
2022/04/28 11:33:26;;;;;;;20.77;8.85;;;;;;;;;;5029878;28;20045;-57
2022/04/28 11:35:52;;;;;;;24.42;8.50;;;;;;;;;;5027705;28;20037;-55
2022/04/28 11:38:26;;;;;;;27.10;10.27;;;;;;;;;;5032319;28;20060;-55
2022/04/28 11:41:03;;;;;;;26.52;9.13;;;;;;;;;;5031994;28;20028;-56
2022/04/28 11:43:31;;;;;;;19.60;8.93;;;;;;;;;;5031970;28;20074;-55
2022/04/28 11:45:57;;;;;;;33.00;8.77;;;;;;;;;;5018944;28;20033;-57
2022/04/28 11:48:23;;;;;;;32.97;8.85;;;;;;;;;;5032303;28;20021;-56
2022/04/28 11:50:49;;;;;;;27.33;9.18;;;;;;;;;;5034286;28;20030;-56
2022/04/28 11:53:14;;;;;;;30.15;9.90;;;;;;;;;;5032622;28;20392;-56
2022/04/28 11:55:40;;;;;;;28.77;9.07;;;;;;;;;;5031961;28;20029;-56
2022/04/28 11:58:08;;;;;;;29.27;9.10;;;;;;;;;;5031268;28;20057;-56
2022/04/28 12:00:38;;;;;;;25.13;8.85;;;;;;;;;;5030536;28;20033;-56
2022/04/28 12:03:04;;;;;;;32.47;9.52;;;;;;;;;;5028629;28;20381;-55
2022/04/28 12:05:34;;;;;;;29.83;8.82;;;;;;;;;;5018410;28;20068;-56
2022/04/28 12:08:00;;;;;;;29.92;9.30;;;;;;;;;;5030288;28;20032;-56
2022/04/28 12:16:05;;;;;;;30.42;10.15;;;;;;;;;;5035147;28;20123;-56
2022/04/28 12:21:16;;;;;;;28.58;8.82;;;;;;;;;;5032351;28;20032;-56
2022/04/28 12:23:45;;;;;;;34.13;9.38;;;;;;;;;;5035121;28;20024;-56
2022/04/28 12:26:11;;;;;;;37.17;10.45;;;;;;;;;;5036576;28;20034;-56
2022/04/28 12:28:42;;;;;;;26.67;9.73;;;;;;;;;;5037895;28;20037;-56
2022/04/28 12:31:09;;;;;;;28.35;10.15;;;;;;;;;;5041631;28;20040;-56
2022/04/28 12:33:37;;;;;;;29.90;10.52;;;;;;;;;;5036729;28;20136;-56
2022/04/28 12:36:11;;;;;;;21.13;9.35;;;;;;;;;;5039272;28;20025;-55
2022/04/28 12:38:44;;;;;;;23.92;10.40;;;;;;;;;;5035365;28;20055;-56
2022/04/28 12:41:15;;;;;;;31.10;11.30;;;;;;;;;;5031470;28;20400;-56
2022/04/28 12:43:46;;;;;;;29.05;10.30;;;;;;;;;;5035359;28;20030;-56
2022/04/28 12:46:15;;;;;;;31.17;9.07;;;;;;;;;;5041933;28;20044;-55
2022/04/28 12:48:41;;;;;;;39.97;9.80;;;;;;;;;;5032736;28;20736;-55
2022/04/28 12:51:16;;;;;;;31.63;9.23;;;;;;;;;;5032641;28;20033;-56
2022/04/28 12:53:48;;;;;;;31.65;9.90;;;;;;;;;;5035506;28;20080;-55
2022/04/28 12:56:15;;;;;;;;;;;;;;;;;;5034302;28;20041;-56
2022/04/28 12:58:46;;;;;;;32.85;9.38;;;;;;;;;;5034203;28;20008;-54
2022/04/28 13:01:14;;;;;;;26.52;9.77;;;;;;;;;;5042873;28;20799;-55
2022/04/28 13:03:41;;;;;;;28.08;10.82;;;;;;;;;;5016386;28;20032;-56
2022/04/28 13:06:08;;;;;;;30.77;9.50;;;;;;;;;;5016508;28;20049;-56
2022/04/28 13:08:34;;;;;;;32.05;9.95;;;;;;;;;;5035530;28;20028;-55
2022/04/28 13:11:01;;;;;;;32.17;10.32;;;;;;;;;;5030771;28;20041;-55
2022/04/28 13:13:27;;;;;;;33.03;10.88;;;;;;;;;;5034363;28;20052;-57
2022/04/28 13:15:53;;;;;;;25.08;9.07;;;;;;;;;;5037354;28;20032;-57
2022/04/28 13:18:18;;;;;;;28.38;9.45;;;;;;;;;;5033146;28;20391;-54
2022/04/28 13:20:44;;;;;;;32.67;10.00;;;;;;;;;;5041831;28;20040;-55
2022/04/28 13:23:11;;;;;;;35.80;10.05;;;;;;;;;;5039247;28;20029;-55
2022/04/28 13:25:36;;;;;;;33.85;11.38;;;;;;;;;;5037906;28;20036;-55
2022/04/28 13:28:02;;;;;;;31.35;10.23;;;;;;;;;;5037117;28;20033;-55
2022/04/28 13:30:27;;;;;;;32.58;9.85;;;;;;;;;;5033172;28;20025;-55
2022/04/28 13:32:53;;;;;;;40.85;11.70;;;;;;;;;;5036472;28;20132;-55
2022/04/28 13:35:18;;;;;;;31.73;8.73;;;;;;;;;;5034367;28;20029;-56
2022/04/28 13:37:44;;;;;;;29.02;9.90;;;;;;;;;;5036099;28;20033;-56
2022/04/28 13:40:09;;;;;;;40.80;10.43;;;;;;;;;;5031108;28;20043;-57
2022/04/28 13:42:35;;;;;;;26.92;9.20;;;;;;;;;;5029095;28;20025;-56
2022/04/28 13:45:01;;;;;;;26.02;8.50;;;;;;;;;;5034212;28;20083;-56
2022/04/28 13:47:27;;;;;;;29.85;10.43;;;;;;;;;;5035018;28;20319;-56
2022/04/28 13:49:55;;;;;;;30.35;11.05;;;;;;;;;;5030313;28;20040;-56
2022/04/28 13:52:21;;;;;;;36.67;10.75;;;;;;;;;;5034497;28;20116;-56
2022/04/28 13:54:47;;;;;;;18.42;7.78;;;;;;;;;;5029745;28;20572;-56
2022/04/28 13:57:13;;;;;;;28.15;8.60;;;;;;;;;;5036883;28;20084;-56
2022/04/28 13:59:39;;;;;;;37.22;8.65;;;;;;;;;;5036181;28;20574;-56
2022/04/28 14:02:04;;;;;;;27.35;9.30;;;;;;;;;;5030797;28;20033;-55
2022/04/28 14:04:30;;;;;;;28.98;8.70;;;;;;;;;;5029495;28;20064;-56
2022/04/28 14:06:56;;;;;;;26.20;9.20;;;;;;;;;;5034335;28;20029;-57
2022/04/28 14:09:21;;;;;;;21.25;8.75;;;;;;;;;;5033214;28;20033;-57
2022/04/28 14:11:48;;;;;;;29.90;8.57;;;;;;;;;;5034400;28;20305;-56
2022/04/28 14:14:14;;;;;;;31.27;9.10;;;;;;;;;;5035071;28;20029;-56
2022/04/28 14:16:39;;;;;;;28.77;8.70;;;;;;;;;;5021647;28;20112;-56
2022/04/28 14:19:06;;;;;;;24.70;9.15;;;;;;;;;;5032866;28;20163;-56
2022/04/28 14:21:33;;;;;;;23.88;9.52;;;;;;;;;;5032580;28;20038;-56
2022/04/28 14:24:00;;;;;;;27.70;10.40;;;;;;;;;;5034209;28;20052;-58
2022/04/28 14:26:25;;;;;;;25.65;8.52;;;;;;;;;;5031602;28;20116;-57
2022/04/28 14:28:51;;;;;;;19.88;8.27;;;;;;;;;;5037701;28;20522;-56
2022/04/28 14:31:16;;;;;;;24.45;8.45;;;;;;;;;;5031521;28;20033;-57
2022/04/28 14:33:42;;;;;;;31.05;9.63;;;;;;;;;;5037323;28;20440;-56
2022/04/28 14:36:08;;;;;;;23.83;9.48;;;;;;;;;;5030029;28;20566;-56
2022/04/28 14:38:33;;;;;;;27.27;9.52;;;;;;;;;;5031044;28;20105;-56
2022/04/28 14:41:00;;;;;;;24.52;8.13;;;;;;;;;;5040118;28;20036;-56
2022/04/28 14:43:25;;;;;;;22.92;7.95;;;;;;;;;;5037039;28;20028;-56
2022/04/28 14:45:51;;;;;;;25.65;8.30;;;;;;;;;;5034354;28;20028;-56
2022/04/28 14:48:17;;;;;;;22.92;8.38;;;;;;;;;;5036546;28;20550;-56
2022/04/28 14:53:29;;;;;;;22.30;7.80;;;;;;;;;;5031446;28;20028;-56
2022/04/28 14:55:54;;;;;;;32.50;8.27;;;;;;;;;;5035081;28;20025;-56
2022/04/28 14:58:20;;;;;;;38.45;8.48;;;;;;;;;;5038208;28;20041;-56
2022/04/28 15:00:45;;;;;;;25.80;8.82;;;;;;;;;;5030589;28;20044;-56
2022/04/28 15:03:13;;;;;;;21.52;7.57;;;;;;;;;;5037163;28;20031;-56
2022/04/28 15:05:39;;;;;;;30.67;8.30;;;;;;;;;;5015225;28;20032;-55
2022/04/28 15:08:05;;;;;;;24.10;7.72;;;;;;;;;;5030579;28;20037;-56
2022/04/28 15:10:31;;;;;;;20.33;7.43;;;;;;;;;;5036141;28;20577;-55
2022/04/28 15:12:56;;;;;;;21.80;7.47;;;;;;;;;;5033588;28;20508;-56
2022/04/28 15:15:25;;;;;;;30.80;8.63;;;;;;;;;;5035137;28;20197;-55
2022/04/28 15:17:51;;;;;;;19.63;7.20;;;;;;;;;;5022156;28;20056;-56
2022/04/28 15:20:16;;;;;;;27.98;7.30;;;;;;;;;;5031443;28;20118;-56